Time;durP1;ratioP1;P1;durP2;ratioP2;P2;SDS_P1;SDS_P2;PMS_P1;PMS_P2;Temp;Humidity;BMP_temperature;BMP_pressure;BME280_temperature;BME280_humidity;BME280_pressure;Samples;Min_cycle;Max_cycle;Signal;HPM_P1;HPM_P2
2023/02/22 00:00:51;;;;;;;72.93;30.80;;;9.70;99.90;;;;;;5067779;28;20425;-85
2023/02/22 00:03:24;;;;;;;63.83;30.67;;;9.70;99.90;;;;;;5067278;28;20438;-85
2023/02/22 00:06:03;;;;;;;65.30;29.67;;;9.60;99.90;;;;;;5072710;28;20420;-81
2023/02/22 00:08:32;;;;;;;63.03;28.80;;;9.60;99.90;;;;;;5056216;28;20480;-84
2023/02/22 00:11:00;;;;;;;64.27;28.40;;;9.60;99.90;;;;;;5070723;28;20428;-84
2023/02/22 00:13:30;;;;;;;63.67;28.40;;;9.70;99.90;;;;;;5072150;28;20765;-87
2023/02/22 00:15:56;;;;;;;59.13;25.80;;;9.60;99.90;;;;;;5058626;28;20421;-87
2023/02/22 00:18:22;;;;;;;71.73;30.93;;;9.60;99.90;;;;;;5067127;28;20498;-88
2023/02/22 00:20:47;;;;;;;71.60;31.17;;;9.70;99.90;;;;;;5067033;28;20910;-85
2023/02/22 00:23:18;;;;;;;65.50;29.53;;;9.80;99.90;;;;;;5065230;28;20189;-90
2023/02/22 00:25:45;;;;;;;62.97;27.00;;;9.80;99.90;;;;;;5062434;28;20186;-92
2023/02/22 00:28:11;;;;;;;56.90;28.10;;;9.80;99.90;;;;;;5062665;28;20992;-91
2023/02/22 00:30:36;;;;;;;64.13;29.57;;;9.70;99.90;;;;;;5063783;28;20473;-83
2023/02/22 00:33:02;;;;;;;70.40;28.33;;;9.70;99.90;;;;;;5056120;28;20236;-77
2023/02/22 00:35:29;;;;;;;62.50;28.87;;;9.60;99.90;;;;;;5055128;28;20580;-77
2023/02/22 00:37:59;;;;;;;79.87;31.83;;;9.50;99.90;;;;;;5054442;28;20190;-80
2023/02/22 00:40:32;;;;;;;68.77;26.57;;;9.50;99.90;;;;;;5054698;28;20431;-80
2023/02/22 00:42:58;;;;;;;75.50;29.87;;;9.60;99.90;;;;;;5056457;28;20526;-77
2023/02/22 00:45:26;;;;;;;77.40;31.40;;;9.60;99.90;;;;;;5057579;28;20421;-77
2023/02/22 00:47:53;;;;;;;66.93;29.40;;;9.60;99.90;;;;;;5060205;28;20461;-76
2023/02/22 00:50:20;;;;;;;68.80;29.97;;;9.60;99.90;;;;;;5061984;28;20423;-77
2023/02/22 00:52:45;;;;;;;71.60;28.27;;;9.60;99.90;;;;;;5045737;28;20972;-77
2023/02/22 00:55:19;;;;;;;70.33;28.40;;;9.50;99.90;;;;;;5066772;28;20431;-77
2023/02/22 00:57:45;;;;;;;73.20;31.03;;;9.40;99.90;;;;;;5040778;28;20178;-77
2023/02/22 01:00:17;;;;;;;68.57;28.60;;;9.30;99.90;;;;;;5057771;28;20456;-77
2023/02/22 01:02:43;;;;;;;78.80;28.27;;;9.40;99.90;;;;;;5056179;28;20210;-77
2023/02/22 01:05:15;;;;;;;79.70;29.80;;;9.50;99.90;;;;;;5064286;28;20448;-77
2023/02/22 01:07:41;;;;;;;78.77;34.90;;;9.50;99.90;;;;;;5054617;28;20742;-77
2023/02/22 01:10:08;;;;;;;73.20;31.70;;;9.40;99.90;;;;;;5070611;28;20441;-76
2023/02/22 01:12:34;;;;;;;89.63;31.40;;;9.30;99.90;;;;;;5068743;28;20435;-77
2023/02/22 01:15:04;;;;;;;79.93;32.20;;;9.30;99.90;;;;;;5061545;28;20445;-76
2023/02/22 01:17:30;;;;;;;75.20;30.80;;;9.30;99.90;;;;;;5063254;28;20433;-77
2023/02/22 01:19:56;;;;;;;79.80;31.27;;;9.20;99.90;;;;;;5064430;28;20425;-77
2023/02/22 01:22:22;;;;;;;78.90;31.77;;;9.20;99.90;;;;;;5062814;28;20229;-79
2023/02/22 01:24:49;;;;;;;82.80;32.73;;;9.10;99.90;;;;;;5059265;28;20183;-80
2023/02/22 01:27:16;;;;;;;78.33;32.07;;;9.20;99.90;;;;;;5057937;28;20465;-79
2023/02/22 01:29:41;;;;;;;86.03;32.10;;;9.20;99.90;;;;;;5056177;28;20437;-79
2023/02/22 01:32:07;;;;;;;81.27;30.40;;;9.20;99.90;;;;;;5054247;28;20473;-79
2023/02/22 01:34:33;;;;;;;79.50;32.10;;;9.10;99.90;;;;;;5055712;28;20198;-79
2023/02/22 01:37:02;;;;;;;78.67;34.00;;;9.20;99.90;;;;;;5057383;28;20428;-79
2023/02/22 01:39:28;;;;;;;63.00;29.27;;;9.30;99.90;;;;;;5058869;28;20437;-79
2023/02/22 01:41:53;;;;;;;81.60;30.10;;;9.30;99.90;;;;;;5060532;28;20421;-79
2023/02/22 01:44:21;;;;;;;74.03;31.80;;;9.20;99.90;;;;;;5044478;28;20236;-79
2023/02/22 01:46:47;;;;;;;79.53;31.07;;;9.20;99.90;;;;;;5064093;28;20197;-76
2023/02/22 01:49:14;;;;;;;73.43;27.87;;;9.30;99.90;;;;;;5066000;28;20476;-77
2023/02/22 01:51:51;;;;;;;69.23;29.50;;;9.30;99.90;;;;;;5067756;28;20190;-73
2023/02/22 01:54:46;;;;;;;79.33;31.10;;;9.30;99.90;;;;;;5069463;28;20952;-74
2023/02/22 01:57:19;;;;;;;89.43;29.67;;;9.20;99.90;;;;;;5053329;28;20430;-73
2023/02/22 01:59:48;;;;;;;74.87;27.27;;;9.10;99.90;;;;;;5053696;28;20526;-73
2023/02/22 02:02:15;;;;;;;71.80;28.57;;;9.00;99.90;;;;;;5055500;28;20487;-73
2023/02/22 02:04:41;;;;;;;66.00;27.97;;;8.90;99.90;;;;;;5056896;28;20444;-73
2023/02/22 02:07:09;;;;;;;71.17;29.10;;;9.10;99.90;;;;;;5058499;28;20471;-73
2023/02/22 02:09:52;;;;;;;76.63;29.30;;;9.20;99.90;;;;;;5066179;28;20436;-73
2023/02/22 02:12:20;;;;;;;64.07;25.37;;;9.20;99.90;;;;;;5061651;28;20456;-73
2023/02/22 02:14:45;;;;;;;66.17;25.57;;;9.20;99.90;;;;;;5064953;28;20854;-73
2023/02/22 02:17:16;;;;;;;79.23;26.30;;;9.20;99.90;;;;;;5060072;28;20528;-73
2023/02/22 02:19:58;;;;;;;56.13;26.40;;;9.20;99.90;;;;;;5058455;28;20218;-78
2023/02/22 02:22:47;;;;;;;60.87;26.37;;;9.20;99.90;;;;;;5069539;28;20464;-78
2023/02/22 02:25:41;;;;;;;71.27;29.20;;;9.00;99.90;;;;;;5058114;28;20436;-77
2023/02/22 02:28:37;;;;;;;65.93;26.40;;;8.90;99.90;;;;;;5072242;28;20543;-78
2023/02/22 02:31:22;;;;;;;69.40;28.27;;;8.90;99.90;;;;;;5055715;28;21061;-77
2023/02/22 02:34:04;;;;;;;51.90;24.90;;;9.00;99.90;;;;;;5057537;28;20445;-77
2023/02/22 02:36:29;;;;;;;77.03;26.23;;;9.00;99.90;;;;;;5059737;28;20433;-77
2023/02/22 02:39:01;;;;;;;66.37;24.37;;;9.00;99.90;;;;;;5061469;28;20423;-74
2023/02/22 02:41:35;;;;;;;46.33;21.73;;;9.10;99.90;;;;;;5044887;28;20182;-74
2023/02/22 02:44:03;;;;;;;58.37;25.33;;;9.10;99.90;;;;;;5063609;28;20416;-74
2023/02/22 02:46:59;;;;;;;51.13;23.37;;;8.90;99.90;;;;;;5040641;28;20439;-74
2023/02/22 02:49:50;;;;;;;63.20;25.20;;;8.80;99.90;;;;;;5068763;28;20547;-74
2023/02/22 02:52:17;;;;;;;74.43;26.47;;;8.80;99.90;;;;;;5054549;28;20499;-74
2023/02/22 02:54:44;;;;;;;53.10;22.10;;;8.90;99.90;;;;;;5054814;28;20780;-76
2023/02/22 02:57:10;;;;;;;69.00;24.10;;;8.80;99.90;;;;;;5061702;28;20502;-76
2023/02/22 02:59:37;;;;;;;50.47;24.60;;;8.80;99.90;;;;;;5066014;28;20444;-77
2023/02/22 03:02:33;;;;;;;52.53;23.40;;;8.80;99.90;;;;;;5058406;28;20183;-76
2023/02/22 03:05:30;;;;;;;50.73;22.63;;;8.80;99.90;;;;;;5060056;28;20433;-75
2023/02/22 03:08:10;;;;;;;46.87;21.37;;;8.70;99.90;;;;;;5062189;28;20566;-75
2023/02/22 03:11:13;;;;;;;57.00;23.30;;;8.80;99.90;;;;;;5059527;28;20432;-72
2023/02/22 03:13:59;;;;;;;55.90;23.40;;;8.70;99.90;;;;;;5058908;28;20778;-74
2023/02/22 03:16:44;;;;;;;46.13;21.93;;;8.70;99.90;;;;;;5065184;28;20429;-73
2023/02/22 03:19:35;;;;;;;54.23;22.00;;;8.60;99.90;;;;;;5054486;28;20457;-73
2023/02/22 03:22:04;;;;;;;47.90;21.70;;;8.60;99.90;;;;;;5069144;28;20785;-73
2023/02/22 03:24:41;;;;;;;56.03;22.07;;;8.60;99.90;;;;;;5074452;28;20839;-73
2023/02/22 03:27:13;;;;;;;56.70;20.53;;;8.60;99.90;;;;;;5072455;28;20439;-72
2023/02/22 03:29:42;;;;;;;36.80;18.80;;;8.80;99.90;;;;;;5062131;28;20437;-72
2023/02/22 03:32:14;;;;;;;49.27;21.37;;;8.80;99.90;;;;;;5062848;28;20477;-72
2023/02/22 03:34:51;;;;;;;42.80;17.93;;;8.90;99.90;;;;;;5065607;28;20439;-73
2023/02/22 03:37:24;;;;;;;36.70;18.10;;;8.80;99.90;;;;;;5064858;28;20447;-72
2023/02/22 05:30:25;;;;;;;18.83;11.10;;;7.40;99.90;;;;;;6210634;22;20418;-74
2023/02/22 05:32:51;;;;;;;26.10;11.97;;;7.40;99.90;;;;;;4979261;28;20571;-76
2023/02/22 05:35:18;;;;;;;18.30;11.97;;;7.50;99.90;;;;;;4977332;28;20955;-74
2023/02/22 05:37:43;;;;;;;21.67;12.20;;;7.40;99.90;;;;;;4975609;28;21238;-77
2023/02/22 05:40:11;;;;;;;20.30;11.60;;;7.40;99.90;;;;;;4976365;28;20552;-74
2023/02/22 05:42:36;;;;;;;26.50;12.83;;;7.40;99.90;;;;;;4978110;28;20501;-77
2023/02/22 05:45:02;;;;;;;21.70;12.50;;;7.40;99.90;;;;;;4979331;28;20527;-73
2023/02/22 05:47:28;;;;;;;23.27;12.73;;;7.40;99.90;;;;;;4980055;28;20209;-74
2023/02/22 05:49:54;;;;;;;29.47;13.07;;;7.40;99.90;;;;;;4982208;28;20288;-73
2023/02/22 05:52:19;;;;;;;24.07;12.87;;;7.50;99.90;;;;;;4984768;28;20185;-73
2023/02/22 05:54:45;;;;;;;33.23;14.50;;;7.50;99.90;;;;;;4986480;28;20184;-74
2023/02/22 05:57:10;;;;;;;23.43;11.77;;;7.50;99.90;;;;;;4988155;28;20189;-74
2023/02/22 05:59:36;;;;;;;28.93;13.33;;;7.50;99.90;;;;;;4989967;28;20223;-74
2023/02/22 06:02:01;;;;;;;30.37;13.80;;;7.40;99.90;;;;;;4991468;28;20180;-75
2023/02/22 06:04:27;;;;;;;43.87;13.93;;;7.40;99.90;;;;;;4992239;28;20185;-74
2023/02/22 06:06:52;;;;;;;42.83;13.97;;;7.40;99.90;;;;;;4992638;28;20177;-73
2023/02/22 06:09:18;;;;;;;24.70;11.93;;;7.40;99.90;;;;;;4991449;28;20255;-73
2023/02/22 06:11:43;;;;;;;19.03;9.70;;;7.40;99.90;;;;;;4989693;28;20192;-72
2023/02/22 06:14:09;;;;;;;19.07;10.50;;;7.30;99.90;;;;;;4987771;28;20188;-73
2023/02/22 06:16:34;;;;;;;30.83;10.63;;;7.30;99.90;;;;;;4985557;28;20187;-73
2023/02/22 06:19:00;;;;;;;20.73;10.80;;;7.40;99.90;;;;;;4984124;28;20219;-73
2023/02/22 06:21:26;;;;;;;26.70;11.50;;;7.30;99.90;;;;;;4982434;28;20260;-74
2023/02/22 06:23:52;;;;;;;37.77;10.23;;;7.20;99.90;;;;;;4980877;28;20188;-72
2023/02/22 06:26:18;;;;;;;21.07;12.37;;;7.30;99.90;;;;;;4979275;28;20439;-72
2023/02/22 06:28:47;;;;;;;27.33;11.00;;;7.30;99.90;;;;;;4977289;28;20487;-72
2023/02/22 06:31:12;;;;;;;15.27;10.13;;;7.30;99.90;;;;;;4975224;28;20520;-72
2023/02/22 06:33:38;;;;;;;16.83;9.13;;;7.30;99.90;;;;;;4974545;28;20495;-73
2023/02/22 06:36:04;;;;;;;16.03;9.30;;;7.30;99.90;;;;;;4991511;28;20267;-74
2023/02/22 06:38:29;;;;;;;23.83;10.93;;;7.30;99.90;;;;;;4989607;28;20298;-74
2023/02/22 06:40:55;;;;;;;19.73;10.20;;;7.20;99.90;;;;;;4989366;28;20457;-77
2023/02/22 06:43:23;;;;;;;23.80;11.13;;;7.20;99.90;;;;;;4981380;28;20827;-76
2023/02/22 06:45:48;;;;;;;23.03;9.93;;;7.20;99.90;;;;;;4985262;28;20284;-73
2023/02/22 06:48:14;;;;;;;24.00;10.40;;;7.20;99.90;;;;;;4984081;28;20934;-75
2023/02/22 06:50:39;;;;;;;17.07;10.63;;;7.30;99.90;;;;;;4983506;28;20192;-75
2023/02/22 06:53:05;;;;;;;16.80;9.77;;;7.30;99.90;;;;;;4986527;28;20256;-76
2023/02/22 06:55:32;;;;;;;39.43;12.50;;;7.20;99.90;;;;;;4987017;28;20189;-74
2023/02/22 06:57:59;;;;;;;31.67;12.37;;;7.20;99.90;;;;;;4978076;28;20193;-75
2023/02/22 07:00:26;;;;;;;24.40;11.80;;;7.30;99.90;;;;;;4974199;28;20583;-75
2023/02/22 07:02:52;;;;;;;20.77;11.73;;;7.30;99.90;;;;;;4975461;28;20556;-75
2023/02/22 07:05:20;;;;;;;16.73;10.10;;;7.30;99.90;;;;;;4976634;28;20444;-74
2023/02/22 07:07:46;;;;;;;20.27;11.37;;;7.30;99.90;;;;;;4978531;28;20464;-74
2023/02/22 07:10:22;;;;;;;24.40;11.40;;;7.30;99.90;;;;;;4980637;28;20451;-74
2023/02/22 07:12:48;;;;;;;29.17;10.47;;;7.30;99.90;;;;;;4984180;28;20479;-74
2023/02/22 07:15:16;;;;;;;19.77;10.67;;;7.30;99.90;;;;;;4983972;28;20444;-75
2023/02/22 07:17:42;;;;;;;20.87;11.17;;;7.30;99.90;;;;;;4985786;28;20252;-76
2023/02/22 07:20:10;;;;;;;17.30;11.73;;;7.20;99.90;;;;;;4987299;28;20444;-75
2023/02/22 07:22:38;;;;;;;21.47;13.77;;;7.30;99.90;;;;;;4988900;28;20210;-75
2023/02/22 07:25:08;;;;;;;18.53;12.80;;;7.30;99.90;;;;;;4991198;28;20459;-73
2023/02/22 07:27:36;;;;;;;28.53;12.17;;;7.40;99.90;;;;;;4991299;28;20891;-76
2023/02/22 07:30:02;;;;;;;29.63;13.00;;;7.40;99.90;;;;;;4990815;28;20494;-74
2023/02/22 07:32:27;;;;;;;30.67;15.27;;;7.40;99.90;;;;;;4987397;28;20496;-74
2023/02/22 07:34:53;;;;;;;22.60;12.20;;;7.40;99.90;;;;;;4978363;28;20185;-75
2023/02/22 07:37:20;;;;;;;29.23;12.47;;;7.70;99.90;;;;;;4979039;28;20550;-75
2023/02/22 07:39:45;;;;;;;55.53;13.70;;;7.80;99.90;;;;;;4980843;28;20181;-75
2023/02/22 07:42:11;;;;;;;18.00;10.63;;;7.80;99.90;;;;;;4983217;28;20432;-74
2023/02/22 07:44:36;;;;;;;19.83;12.53;;;7.90;99.90;;;;;;4985699;28;20221;-74
2023/02/22 07:47:02;;;;;;;32.10;12.53;;;8.00;99.90;;;;;;4987254;28;20192;-75
2023/02/22 07:49:27;;;;;;;22.37;12.00;;;8.00;99.90;;;;;;4988296;28;20599;-75
2023/02/22 07:51:53;;;;;;;22.40;13.33;;;8.10;99.90;;;;;;4990455;28;20189;-75
2023/02/22 07:54:19;;;;;;;24.50;12.43;;;8.10;99.90;;;;;;4990727;28;20280;-73
2023/02/22 07:56:46;;;;;;;21.23;11.93;;;8.20;99.90;;;;;;4990882;28;20271;-73
2023/02/22 07:59:13;;;;;;;24.50;13.30;;;8.20;99.90;;;;;;4988360;28;20811;-74
2023/02/22 08:01:39;;;;;;;22.10;13.67;;;8.30;99.90;;;;;;4987732;28;20440;-74
2023/02/22 08:04:05;;;;;;;21.00;13.43;;;8.40;99.90;;;;;;4986281;28;20784;-74
2023/02/22 08:06:30;;;;;;;24.07;11.80;;;8.40;99.90;;;;;;4984358;28;20451;-74
2023/02/22 08:08:56;;;;;;;19.30;11.33;;;8.50;99.90;;;;;;4982530;28;20893;-73
2023/02/22 08:11:23;;;;;;;21.50;13.03;;;8.60;99.90;;;;;;4983293;28;20200;-73
2023/02/22 08:13:48;;;;;;;21.70;13.60;;;8.70;99.90;;;;;;4982330;28;20528;-74
2023/02/22 08:16:14;;;;;;;21.70;13.40;;;8.80;99.90;;;;;;4983338;28;20436;-74
2023/02/22 08:18:40;;;;;;;18.20;13.00;;;8.80;99.90;;;;;;4993212;28;20572;-74
2023/02/22 08:21:06;;;;;;;18.50;11.30;;;8.80;99.90;;;;;;4993964;28;20220;-73
2023/02/22 08:23:31;;;;;;;24.80;11.80;;;8.90;99.90;;;;;;4990375;28;20644;-74
2023/02/22 08:26:04;;;;;;;19.83;12.37;;;8.90;99.90;;;;;;4993206;28;20184;-75
2023/02/22 08:28:30;;;;;;;24.53;14.60;;;8.90;99.90;;;;;;4981160;28;20210;-74
2023/02/22 08:30:56;;;;;;;18.53;12.70;;;9.00;99.90;;;;;;4984514;28;20472;-74
2023/02/22 08:33:21;;;;;;;22.63;14.93;;;9.00;99.90;;;;;;4988038;28;20559;-74
2023/02/22 08:35:48;;;;;;;25.07;14.33;;;9.10;99.90;;;;;;4986051;28;20173;-74
2023/02/22 08:38:34;;;;;;;25.37;15.70;;;9.20;99.90;;;;;;4984571;28;20186;-72
2023/02/22 08:40:59;;;;;;;23.30;15.10;;;9.30;99.90;;;;;;4980609;28;20467;-74
2023/02/22 08:43:27;;;;;;;21.33;14.13;;;9.40;99.90;;;;;;4987732;28;20471;-76
2023/02/22 08:45:53;;;;;;;19.47;13.63;;;9.50;99.90;;;;;;4978860;28;20185;-74
2023/02/22 08:48:19;;;;;;;24.03;15.83;;;9.60;99.90;;;;;;4992184;28;20480;-73
2023/02/22 08:50:45;;;;;;;25.47;16.20;;;9.70;99.90;;;;;;4993281;28;20191;-73
2023/02/22 08:53:12;;;;;;;23.30;15.70;;;9.80;99.90;;;;;;4991601;28;20436;-74
2023/02/22 08:55:39;;;;;;;22.93;14.90;;;10.00;99.90;;;;;;4990195;28;20439;-74
2023/02/22 08:58:08;;;;;;;23.10;14.87;;;10.10;99.90;;;;;;4988406;28;20591;-72
2023/02/22 09:00:34;;;;;;;20.70;13.37;;;10.20;99.90;;;;;;4981957;28;20941;-73
2023/02/22 09:03:01;;;;;;;21.53;14.17;;;10.30;99.90;;;;;;4983030;28;20534;-74
2023/02/22 09:05:27;;;;;;;18.33;12.50;;;10.40;99.90;;;;;;4985290;28;20432;-74
2023/02/22 09:07:53;;;;;;;17.60;13.30;;;10.50;99.90;;;;;;4986499;28;20464;-74
2023/02/22 09:10:23;;;;;;;20.30;12.40;;;10.50;99.90;;;;;;4988724;28;20947;-75
2023/02/22 09:12:56;;;;;;;21.77;13.60;;;10.60;99.90;;;;;;4990796;28;20185;-76
2023/02/22 09:15:22;;;;;;;19.77;13.97;;;10.60;99.90;;;;;;4992618;28;20434;-76
2023/02/22 09:17:48;;;;;;;27.70;14.77;;;10.70;99.90;;;;;;4993085;28;20479;-76
2023/02/22 09:20:17;;;;;;;31.00;15.43;;;10.80;99.90;;;;;;4980178;28;20456;-77
2023/02/22 09:22:44;;;;;;;23.10;17.07;;;10.80;99.90;;;;;;4986750;28;20239;-76
2023/02/22 09:25:10;;;;;;;20.83;15.23;;;10.90;99.90;;;;;;4987905;28;20451;-77
2023/02/22 09:27:37;;;;;;;19.33;14.70;;;11.00;99.90;;;;;;4985917;28;20456;-76
2023/02/22 09:30:03;;;;;;;22.47;15.13;;;11.10;99.90;;;;;;4984708;28;20250;-75
2023/02/22 09:32:29;;;;;;;22.40;15.37;;;11.10;99.90;;;;;;4982534;28;20469;-74
2023/02/22 09:34:55;;;;;;;20.87;14.50;;;11.20;99.90;;;;;;4982708;28;20468;-74
2023/02/22 09:37:21;;;;;;;21.83;14.47;;;11.20;99.90;;;;;;4988735;28;20185;-72
2023/02/22 09:39:46;;;;;;;23.23;12.57;;;11.40;99.90;;;;;;4981900;28;20229;-74
2023/02/22 09:42:26;;;;;;;28.23;14.73;;;11.40;99.90;;;;;;4975880;28;20217;-73
2023/02/22 09:45:02;;;;;;;36.03;15.37;;;11.50;99.90;;;;;;4988191;28;20192;-74
2023/02/22 09:47:40;;;;;;;23.50;16.20;;;11.60;99.90;;;;;;4975958;28;20429;-73
2023/02/22 09:50:15;;;;;;;20.23;12.53;;;11.60;99.90;;;;;;4977595;28;20868;-73
2023/02/22 09:52:52;;;;;;;16.87;11.50;;;11.70;99.90;;;;;;4984740;28;20435;-73
2023/02/22 09:55:30;;;;;;;16.53;11.77;;;11.80;99.90;;;;;;4986494;28;20455;-73
2023/02/22 09:58:01;;;;;;;19.60;12.10;;;12.00;99.90;;;;;;4985377;28;20428;-73
2023/02/22 10:00:36;;;;;;;21.77;11.23;;;12.10;99.90;;;;;;4983279;28;20440;-74
2023/02/22 10:03:27;;;;;;;16.00;11.10;;;12.20;99.90;;;;;;4983119;28;20519;-72
2023/02/22 10:05:55;;;;;;;17.90;11.90;;;12.20;99.90;;;;;;4980398;28;20476;-73
2023/02/22 10:08:28;;;;;;;19.77;11.57;;;12.40;99.90;;;;;;4989160;28;20534;-73
2023/02/22 10:11:16;;;;;;;21.10;10.90;;;12.50;99.90;;;;;;4993540;28;20471;-73
2023/02/22 10:13:53;;;;;;;18.00;11.27;;;12.50;99.90;;;;;;4992021;28;20435;-73
2023/02/22 10:16:25;;;;;;;18.57;12.10;;;12.50;99.90;;;;;;4990483;28;20444;-72
2023/02/22 10:18:58;;;;;;;16.63;10.27;;;12.60;99.90;;;;;;4981366;28;20455;-76
2023/02/22 10:21:38;;;;;;;16.27;10.73;;;12.70;99.90;;;;;;4985237;28;20803;-72
2023/02/22 10:24:38;;;;;;;19.07;10.40;;;12.80;99.90;;;;;;4983905;28;20847;-72
2023/02/22 10:27:09;;;;;;;14.13;11.17;;;12.80;99.90;;;;;;4981982;28;20447;-72
2023/02/22 10:29:42;;;;;;;14.17;10.20;;;12.90;99.90;;;;;;4987111;28;20618;-72
2023/02/22 10:32:16;;;;;;;17.80;10.83;;;13.00;99.90;;;;;;4986388;28;20978;-73
2023/02/22 10:34:47;;;;;;;14.27;10.27;;;13.10;99.90;;;;;;4989209;28;21022;-73
2023/02/22 10:37:29;;;;;;;15.90;10.07;;;13.10;99.90;;;;;;4991864;28;20527;-72
2023/02/22 10:40:21;;;;;;;18.30;9.17;;;13.20;99.90;;;;;;4976393;28;20448;-72
2023/02/22 10:42:50;;;;;;;13.23;8.30;;;13.30;99.90;;;;;;4976589;28;20935;-72
2023/02/22 10:45:24;;;;;;;15.63;9.70;;;13.50;99.90;;;;;;4982188;28;20447;-72
2023/02/22 10:47:53;;;;;;;12.13;8.90;;;13.60;99.90;;;;;;4982027;28;20483;-72
2023/02/22 10:50:20;;;;;;;10.77;8.70;;;13.70;99.90;;;;;;4982255;28;20849;-72
2023/02/22 10:52:46;;;;;;;14.70;9.03;;;13.70;99.90;;;;;;4983255;28;20495;-72
2023/02/22 10:55:15;;;;;;;17.73;9.77;;;13.60;99.90;;;;;;4986794;28;20425;-72
2023/02/22 10:57:43;;;;;;;12.00;8.60;;;13.70;99.90;;;;;;4987054;28;20189;-72
2023/02/22 11:00:37;;;;;;;15.17;8.67;;;13.70;99.90;;;;;;4978167;28;20433;-72
2023/02/22 11:03:19;;;;;;;11.70;7.10;;;13.80;99.90;;;;;;4972527;28;20437;-75
2023/02/22 11:05:46;;;;;;;12.60;8.37;;;13.80;99.90;;;;;;4973852;28;20433;-75
2023/02/22 11:08:20;;;;;;;14.77;8.57;;;13.80;99.90;;;;;;4974729;28;20483;-74
2023/02/22 11:10:47;;;;;;;15.73;8.60;;;14.00;99.90;;;;;;4987587;28;20494;-74
2023/02/22 11:13:26;;;;;;;11.83;8.30;;;14.00;99.90;;;;;;4984925;28;20432;-75
2023/02/22 11:15:53;;;;;;;11.77;8.40;;;14.10;99.90;;;;;;4985865;28;20437;-75
2023/02/22 11:18:25;;;;;;;12.17;8.57;;;14.20;99.90;;;;;;4980939;28;20445;-75
2023/02/22 11:21:06;;;;;;;17.07;8.60;;;14.30;99.90;;;;;;4984012;28;20437;-75
2023/02/22 11:23:34;;;;;;;10.97;7.70;;;14.30;99.90;;;;;;4985333;28;20497;-75
2023/02/22 11:26:15;;;;;;;10.93;8.93;;;14.30;99.90;;;;;;4987490;28;20424;-75
2023/02/22 11:28:48;;;;;;;15.90;7.50;;;14.30;99.90;;;;;;4980140;28;20827;-75
2023/02/22 11:31:19;;;;;;;13.50;7.20;;;14.30;99.90;;;;;;4976150;28;20527;-75
2023/02/22 11:33:56;;;;;;;12.80;8.23;;;14.30;99.90;;;;;;4974128;28;20445;-75
2023/02/22 11:36:51;;;;;;;14.93;7.70;;;14.40;99.90;;;;;;4987917;28;20420;-75
2023/02/22 11:39:26;;;;;;;11.30;8.37;;;14.50;99.90;;;;;;4972654;28;20470;-76
2023/02/22 11:41:55;;;;;;;14.50;9.23;;;14.50;99.90;;;;;;4987496;28;20471;-76
2023/02/22 11:44:30;;;;;;;13.97;8.07;;;14.50;99.90;;;;;;4987313;28;20792;-76
2023/02/22 11:47:05;;;;;;;12.00;6.60;;;14.50;99.90;;;;;;4988287;28;20506;-75
2023/02/22 11:49:44;;;;;;;14.37;7.80;;;14.60;99.90;;;;;;4988513;28;20475;-76
2023/02/22 11:52:31;;;;;;;10.63;6.20;;;14.70;99.90;;;;;;4990290;28;20428;-75
2023/02/22 11:55:20;;;;;;;9.00;5.80;;;14.90;99.90;;;;;;4991131;28;20459;-75
2023/02/22 11:58:17;;;;;;;10.93;6.33;;;15.20;99.90;;;;;;4994378;28;20444;-75
2023/02/22 12:00:55;;;;;;;6.70;4.43;;;15.10;99.90;;;;;;4995948;28;20515;-78
2023/02/22 12:03:30;;;;;;;7.67;5.03;;;15.20;99.90;;;;;;4995096;28;20522;-75
2023/02/22 12:06:14;;;;;;;9.23;5.50;;;15.40;99.90;;;;;;4983328;28;20424;-79
2023/02/22 12:09:12;;;;;;;9.77;5.00;;;15.50;99.90;;;;;;4982439;28;20476;-75
2023/02/22 12:11:56;;;;;;;9.50;4.77;;;15.70;99.90;;;;;;4988979;28;20935;-75
2023/02/22 12:14:59;;;;;;;8.57;5.17;;;15.70;99.90;;;;;;4988103;28;20433;-75
2023/02/22 12:17:39;;;;;;;8.50;4.70;;;15.80;99.90;;;;;;4988943;28;20943;-75
2023/02/22 12:20:20;;;;;;;6.53;4.47;;;16.00;99.90;;;;;;4984456;28;20424;-75
2023/02/22 12:23:20;;;;;;;9.00;5.03;;;16.20;99.90;;;;;;4980532;28;20478;-76
2023/02/22 12:26:06;;;;;;;6.80;5.00;;;16.40;99.90;;;;;;4981074;28;20516;-75
2023/02/22 12:28:39;;;;;;;8.43;6.00;;;16.50;99.90;;;;;;4993996;28;20475;-72
2023/02/22 12:31:21;;;;;;;14.07;6.28;;;16.40;99.90;;;;;;4980804;28;20992;-75
2023/02/22 12:34:06;;;;;;;9.40;5.70;;;16.40;99.90;;;;;;4982407;28;20561;-85
2023/02/22 12:36:45;;;;;;;16.60;6.73;;;16.30;99.90;;;;;;4982192;28;20429;-77
2023/02/22 12:39:49;;;;;;;7.80;5.70;;;16.40;99.90;;;;;;4987571;28;20443;-79
2023/02/22 12:42:40;;;;;;;9.70;6.30;;;16.60;99.90;;;;;;4985892;28;20778;-81
2023/02/22 12:45:15;;;;;;;7.90;4.70;;;16.60;99.90;;;;;;4982065;28;20444;-78
2023/02/22 12:47:48;;;;;;;9.97;4.30;;;16.80;99.90;;;;;;4985127;28;20487;-77
2023/02/22 12:50:26;;;;;;;7.97;5.50;;;17.00;99.90;;;;;;4983010;28;20448;-81
2023/02/22 12:53:15;;;;;;;9.37;5.27;;;17.10;99.90;;;;;;4993147;28;20519;-73
2023/02/22 12:55:46;;;;;;;12.33;4.70;;;17.00;99.90;;;;;;4993973;28;20444;-74
2023/02/22 12:58:35;;;;;;;12.50;4.03;;;17.00;99.90;;;;;;4981216;28;20971;-82
2023/02/22 13:01:05;;;;;;;11.63;5.47;;;17.00;99.90;;;;;;4990544;28;21037;-75
2023/02/22 13:03:40;;;;;;;10.13;4.60;;;17.00;99.90;;;;;;4988728;28;20957;-75
2023/02/22 13:06:35;;;;;;;7.10;4.53;;;17.00;99.90;;;;;;4987938;28;20533;-79
2023/02/22 13:09:25;;;;;;;11.63;4.90;;;17.10;99.90;;;;;;4984674;28;21146;-74
2023/02/22 13:12:08;;;;;;;7.23;3.60;;;17.00;99.90;;;;;;4982470;28;20460;-76
2023/02/22 13:14:54;;;;;;;5.03;3.57;;;17.00;99.90;;;;;;4987513;28;20447;-76
2023/02/22 13:17:35;;;;;;;3.97;3.13;;;17.10;98.70;;;;;;4987469;28;20966;-75
2023/02/22 13:20:21;;;;;;;10.07;3.50;;;17.10;98.50;;;;;;4978445;28;20428;-75
2023/02/22 13:23:04;;;;;;;6.40;3.50;;;17.20;99.70;;;;;;4991353;28;20455;-76
2023/02/22 13:26:06;;;;;;;9.10;3.90;;;17.30;98.70;;;;;;4990993;28;20436;-75
2023/02/22 13:28:40;;;;;;;5.67;3.93;;;17.30;96.20;;;;;;4986100;28;20999;-77
2023/02/22 13:31:18;;;;;;;6.90;3.17;;;17.50;99.10;;;;;;4981809;28;20495;-75
2023/02/22 13:33:56;;;;;;;5.30;3.70;;;17.30;96.10;;;;;;4985125;28;20439;-73
2023/02/22 13:37:00;;;;;;;7.60;3.70;;;17.30;96.30;;;;;;4983632;28;20428;-77
2023/02/22 13:39:44;;;;;;;5.57;4.10;;;17.50;96.50;;;;;;4954359;28;20444;-75
2023/02/22 13:42:42;;;;;;;8.30;3.73;;;17.40;94.30;;;;;;4986877;28;20440;-78
2023/02/22 13:45:42;;;;;;;6.37;3.80;;;17.50;96.90;;;;;;4983637;28;20447;-78
2023/02/22 13:48:45;;;;;;;5.40;3.30;;;17.50;93.30;;;;;;4977824;28;20491;-76
2023/02/22 13:51:33;;;;;;;6.33;3.60;;;17.60;93.90;;;;;;4985452;28;20973;-76
2023/02/22 13:54:07;;;;;;;5.37;3.33;;;17.70;95.60;;;;;;4988840;28;20440;-74
2023/02/22 13:56:33;;;;;;;4.73;3.83;;;17.50;94.80;;;;;;4983400;28;20428;-76
2023/02/22 13:59:02;;;;;;;7.80;3.90;;;17.40;91.90;;;;;;4977580;28;20432;-73
2023/02/22 14:01:45;;;;;;;6.93;4.13;;;17.40;92.00;;;;;;4979885;28;20209;-76
2023/02/22 14:04:26;;;;;;;6.73;4.00;;;17.50;92.30;;;;;;4983429;28;20432;-72
2023/02/22 14:06:59;;;;;;;6.13;4.20;;;17.50;93.00;;;;;;4985696;28;20433;-72
2023/02/22 14:09:48;;;;;;;9.03;4.13;;;17.40;93.60;;;;;;4987202;28;20583;-72
2023/02/22 14:12:29;;;;;;;6.60;4.10;;;17.30;92.60;;;;;;4989477;28;20574;-73
2023/02/22 14:15:17;;;;;;;7.23;4.47;;;17.30;93.20;;;;;;4991297;28;20459;-72
2023/02/22 14:17:46;;;;;;;10.50;4.50;;;17.10;92.70;;;;;;4974132;28;20444;-74
2023/02/22 14:20:13;;;;;;;8.27;4.73;;;17.10;92.60;;;;;;4975294;28;20437;-73
2023/02/22 14:22:41;;;;;;;8.27;4.93;;;17.00;92.80;;;;;;4977303;28;20441;-73
2023/02/22 14:25:32;;;;;;;9.07;5.87;;;16.90;93.20;;;;;;4978968;28;20478;-73
2023/02/22 14:28:00;;;;;;;11.70;5.80;;;17.00;93.60;;;;;;4984941;28;20488;-72
2023/02/22 14:30:30;;;;;;;8.70;6.30;;;16.90;93.60;;;;;;4982540;28;20443;-76
2023/02/22 14:32:56;;;;;;;9.37;5.17;;;16.70;93.50;;;;;;4984614;28;20471;-73
2023/02/22 14:35:24;;;;;;;10.70;4.93;;;16.70;94.30;;;;;;4986051;28;20463;-72
2023/02/22 14:37:57;;;;;;;6.20;4.67;;;16.60;94.30;;;;;;4979913;28;20227;-74
2023/02/22 14:40:30;;;;;;;6.50;5.67;;;16.50;96.10;;;;;;4976770;28;20492;-71
2023/02/22 14:43:09;;;;;;;11.90;6.03;;;16.40;96.30;;;;;;4988747;28;20846;-75
2023/02/22 14:45:44;;;;;;;8.87;5.60;;;16.40;96.70;;;;;;4974424;28;20436;-72
2023/02/22 14:48:24;;;;;;;6.47;5.87;;;16.30;97.40;;;;;;4990209;28;20541;-73
2023/02/22 14:50:59;;;;;;;7.50;5.40;;;16.40;99.70;;;;;;4988404;28;20484;-73
2023/02/22 14:53:43;;;;;;;9.70;6.60;;;16.30;98.90;;;;;;4983938;28;20440;-71
2023/02/22 14:56:38;;;;;;;11.40;5.40;;;16.20;99.00;;;;;;4985354;28;20432;-72
2023/02/22 14:59:22;;;;;;;8.77;5.00;;;16.20;99.70;;;;;;4971286;28;20769;-71